Time,TemperatureF,DewpointF,PressureIn,WindDirection,WindDirectionDegrees,WindSpeedMPH,WindSpeedGustMPH,Humidity,HourlyPrecipIn,Conditions,Clouds,dailyrainin,SoftwareType,DateUTC
2013-01-19 00:00:00,24.0,17.0,30.45,WNW,289,4.0,14.0,78,-99.99,,,-99.99,,2013-01-19 05:00:00,
2013-01-19 00:23:00,24.0,17.0,30.45,WNW,289,4.0,14.0,78,-99.99,,,-99.99,,2013-01-19 05:23:00,
2013-01-19 00:33:00,24.0,17.0,30.45,WNW,289,4.0,14.0,78,-99.99,,,-99.99,,2013-01-19 05:33:00,
2013-01-19 00:43:00,24.0,17.0,30.45,WNW,289,4.0,14.0,78,-99.99,,,-99.99,,2013-01-19 05:43:00,
2013-01-19 00:53:00,24.0,17.0,30.45,WNW,289,4.0,14.0,78,-99.99,,,-99.99,,2013-01-19 05:53:00,
2013-01-19 01:00:00,27.0,18.0,30.42,WSW,255,8.0,13.0,70,-99.99,,,-99.99,,2013-01-19 06:00:00,
2013-01-19 01:23:00,27.0,18.0,30.42,WSW,255,8.0,13.0,70,-99.99,,,-99.99,,2013-01-19 06:23:00,
2013-01-19 01:33:00,27.0,18.0,30.42,WSW,255,8.0,13.0,70,-99.99,,,-99.99,,2013-01-19 06:33:00,
2013-01-19 01:43:00,27.0,18.0,30.42,WSW,255,8.0,13.0,70,-99.99,,,-99.99,,2013-01-19 06:43:00,
2013-01-19 01:53:00,27.0,18.0,30.42,WSW,255,8.0,13.0,70,-99.99,,,-99.99,,2013-01-19 06:53:00,
2013-01-19 02:00:00,29.0,17.0,30.42,WSW,243,1.0,15.0,61,-99.99,,,-99.99,,2013-01-19 07:00:00,
2013-01-19 02:23:00,29.0,17.0,30.42,WSW,243,1.0,15.0,61,-99.99,,,-99.99,,2013-01-19 07:23:00,
2013-01-19 02:33:00,29.0,17.0,30.42,WSW,243,1.0,15.0,61,-99.99,,,-99.99,,2013-01-19 07:33:00,
2013-01-19 02:43:00,29.0,17.0,30.42,WSW,243,1.0,15.0,61,-99.99,,,-99.99,,2013-01-19 07:43:00,
2013-01-19 02:53:00,29.0,17.0,30.42,WSW,243,1.0,15.0,61,-99.99,,,-99.99,,2013-01-19 07:53:00,
2013-01-19 03:00:00,30.0,18.0,30.39,WSW,243,7.0,12.0,63,-99.99,,,-99.99,,2013-01-19 08:00:00,
2013-01-19 03:22:00,30.0,18.0,30.39,WSW,243,7.0,12.0,63,-99.99,,,-99.99,,2013-01-19 08:22:00,
2013-01-19 03:33:00,30.0,18.0,30.39,WSW,243,7.0,12.0,63,-99.99,,,-99.99,,2013-01-19 08:33:00,
2013-01-19 03:43:00,30.0,18.0,30.39,WSW,243,7.0,12.0,63,-99.99,,,-99.99,,2013-01-19 08:43:00,
2013-01-19 03:53:00,30.0,18.0,30.39,WSW,243,7.0,12.0,63,-99.99,,,-99.99,,2013-01-19 08:53:00,
2013-01-19 04:00:00,30.0,20.0,30.39,WSW,253,0.0,11.0,67,-99.99,,,-99.99,,2013-01-19 09:00:00,
2013-01-19 04:23:00,30.0,20.0,30.39,WSW,253,0.0,11.0,67,-99.99,,,-99.99,,2013-01-19 09:23:00,
2013-01-19 04:33:00,30.0,20.0,30.39,WSW,253,0.0,11.0,67,-99.99,,,-99.99,,2013-01-19 09:33:00,
2013-01-19 04:43:00,30.0,20.0,30.39,WSW,253,0.0,11.0,67,-99.99,,,-99.99,,2013-01-19 09:43:00,
2013-01-19 04:53:00,30.0,20.0,30.39,WSW,253,0.0,11.0,67,-99.99,,,-99.99,,2013-01-19 09:53:00,
2013-01-19 05:00:00,31.0,22.0,30.36,WSW,254,1.0,11.0,69,-99.99,,,-99.99,,2013-01-19 10:00:00,
2013-01-19 05:23:00,31.0,22.0,30.36,WSW,254,1.0,11.0,69,-99.99,,,-99.99,,2013-01-19 10:23:00,
2013-01-19 05:33:00,31.0,22.0,30.36,WSW,254,1.0,11.0,69,-99.99,,,-99.99,,2013-01-19 10:33:00,
2013-01-19 05:43:00,31.0,22.0,30.36,WSW,254,1.0,11.0,69,-99.99,,,-99.99,,2013-01-19 10:43:00,
2013-01-19 05:53:00,31.0,22.0,30.36,WSW,254,1.0,11.0,69,-99.99,,,-99.99,,2013-01-19 10:53:00,
2013-01-19 07:00:00,34.0,20.0,30.36,NNW,336,2.0,9.0,58,-99.99,,,-99.99,,2013-01-19 12:00:00,
2013-01-19 07:48:00,34.0,20.0,30.36,NNW,336,2.0,9.0,58,-99.99,,,-99.99,,2013-01-19 12:48:00,
2013-01-19 07:53:00,34.0,20.0,30.36,NNW,336,2.0,9.0,58,-99.99,,,-99.99,,2013-01-19 12:53:00,
2013-01-19 08:00:00,36.0,23.0,30.36,ESE,104,1.0,9.0,60,-99.99,,,-99.99,,2013-01-19 13:00:00,
2013-01-19 08:23:00,36.0,23.0,30.36,ESE,104,1.0,9.0,60,-99.99,,,-99.99,,2013-01-19 13:23:00,
2013-01-19 08:34:00,36.0,23.0,30.36,ESE,104,1.0,9.0,60,-99.99,,,-99.99,,2013-01-19 13:34:00,
2013-01-19 08:43:00,36.0,23.0,30.36,ESE,104,1.0,9.0,60,-99.99,,,-99.99,,2013-01-19 13:43:00,
2013-01-19 08:54:00,36.0,23.0,30.36,ESE,104,1.0,9.0,60,-99.99,,,-99.99,,2013-01-19 13:54:00,
2013-01-19 09:00:00,40.0,24.0,30.36,SSE,153,5.0,10.0,54,-99.99,,,-99.99,,2013-01-19 14:00:00,
2013-01-19 09:23:00,40.0,24.0,30.36,SSE,153,5.0,10.0,54,-99.99,,,-99.99,,2013-01-19 14:23:00,
2013-01-19 09:34:00,40.0,24.0,30.36,SSE,153,5.0,10.0,54,-99.99,,,-99.99,,2013-01-19 14:34:00,
2013-01-19 09:43:00,40.0,24.0,30.36,SSE,153,5.0,10.0,54,-99.99,,,-99.99,,2013-01-19 14:43:00,
2013-01-19 09:54:00,40.0,24.0,30.36,SSE,153,5.0,10.0,54,-99.99,,,-99.99,,2013-01-19 14:54:00,
2013-01-19 10:00:00,41.0,25.0,30.36,WNW,292,6.0,17.0,52,-99.99,,,-99.99,,2013-01-19 15:00:00,
2013-01-19 10:23:00,41.0,25.0,30.36,WNW,292,6.0,17.0,52,-99.99,,,-99.99,,2013-01-19 15:23:00,
2013-01-19 10:34:00,41.0,25.0,30.36,WNW,292,6.0,17.0,52,-99.99,,,-99.99,,2013-01-19 15:34:00,
2013-01-19 10:43:00,41.0,25.0,30.36,WNW,292,6.0,17.0,52,-99.99,,,-99.99,,2013-01-19 15:43:00,
2013-01-19 10:53:00,41.0,25.0,30.36,WNW,292,6.0,17.0,52,-99.99,,,-99.99,,2013-01-19 15:53:00,
2013-01-19 11:00:00,43.0,27.0,30.30,WSW,246,4.0,18.0,53,-99.99,,,-99.99,,2013-01-19 16:00:00,
2013-01-19 11:23:00,43.0,27.0,30.30,WSW,246,4.0,18.0,53,-99.99,,,-99.99,,2013-01-19 16:23:00,
2013-01-19 11:33:00,43.0,27.0,30.30,WSW,246,4.0,18.0,53,-99.99,,,-99.99,,2013-01-19 16:33:00,
2013-01-19 11:43:00,43.0,27.0,30.30,WSW,246,4.0,18.0,53,-99.99,,,-99.99,,2013-01-19 16:43:00,
2013-01-19 11:54:00,43.0,27.0,30.30,WSW,246,4.0,18.0,53,-99.99,,,-99.99,,2013-01-19 16:54:00,
2013-01-19 12:00:00,45.0,27.0,30.27,West,273,5.0,19.0,49,-99.99,,,-99.99,,2013-01-19 17:00:00,
2013-01-19 12:29:00,45.0,27.0,30.27,West,273,5.0,19.0,49,-99.99,,,-99.99,,2013-01-19 17:29:00,
2013-01-19 12:38:00,45.0,27.0,30.27,West,273,5.0,19.0,49,-99.99,,,-99.99,,2013-01-19 17:38:00,
2013-01-19 12:50:00,45.0,27.0,30.27,West,273,5.0,19.0,49,-99.99,,,-99.99,,2013-01-19 17:50:00,
2013-01-19 12:55:00,45.0,27.0,30.27,West,273,5.0,19.0,49,-99.99,,,-99.99,,2013-01-19 17:55:00,
2013-01-19 13:00:00,48.0,23.0,30.21,NE,42,8.0,20.0,36,-99.99,,,-99.99,,2013-01-19 18:00:00,
2013-01-19 13:29:00,48.0,23.0,30.21,NE,42,8.0,20.0,36,-99.99,,,-99.99,,2013-01-19 18:29:00,
2013-01-19 13:38:00,48.0,23.0,30.21,NE,42,8.0,20.0,36,-99.99,,,-99.99,,2013-01-19 18:38:00,
2013-01-19 13:48:00,48.0,23.0,30.21,NE,42,8.0,20.0,36,-99.99,,,-99.99,,2013-01-19 18:48:00,
2013-01-19 14:00:00,50.0,23.0,30.18,East,85,7.0,15.0,35,-99.99,,,-99.99,,2013-01-19 19:00:00,
2013-01-19 14:40:00,50.0,23.0,30.18,East,85,7.0,15.0,35,-99.99,,,-99.99,,2013-01-19 19:40:00,
2013-01-19 14:50:00,50.0,23.0,30.18,East,85,7.0,15.0,35,-99.99,,,-99.99,,2013-01-19 19:50:00,
2013-01-19 14:59:00,50.0,23.0,30.18,East,85,7.0,15.0,35,-99.99,,,-99.99,,2013-01-19 19:59:00,
2013-01-19 15:28:00,51.0,22.0,30.15,NE,51,6.0,18.0,32,-99.99,,,-99.99,,2013-01-19 20:28:00,
2013-01-19 15:39:00,51.0,22.0,30.15,NE,51,6.0,18.0,32,-99.99,,,-99.99,,2013-01-19 20:39:00,
2013-01-19 15:50:00,51.0,22.0,30.15,NE,51,6.0,18.0,32,-99.99,,,-99.99,,2013-01-19 20:50:00,
2013-01-19 15:59:00,51.0,22.0,30.15,NE,51,6.0,18.0,32,-99.99,,,-99.99,,2013-01-19 20:59:00,
2013-01-19 16:00:00,51.0,21.0,30.12,ESE,113,6.0,17.0,31,-99.99,,,-99.99,,2013-01-19 21:00:00,
2013-01-19 16:29:00,51.0,21.0,30.12,ESE,113,6.0,17.0,31,-99.99,,,-99.99,,2013-01-19 21:29:00,
2013-01-19 16:53:00,51.0,21.0,30.12,ESE,113,6.0,17.0,31,-99.99,,,-99.99,,2013-01-19 21:53:00,
2013-01-19 17:00:00,47.0,27.0,30.12,ESE,122,4.0,14.0,46,-99.99,,,-99.99,,2013-01-19 22:00:00,
2013-01-19 17:29:00,47.0,27.0,30.12,ESE,122,4.0,14.0,46,-99.99,,,-99.99,,2013-01-19 22:29:00,
2013-01-19 17:36:00,47.0,27.0,30.12,ESE,122,4.0,14.0,46,-99.99,,,-99.99,,2013-01-19 22:36:00,
2013-01-19 17:49:00,47.0,27.0,30.12,ESE,122,4.0,14.0,46,-99.99,,,-99.99,,2013-01-19 22:49:00,
2013-01-19 18:00:00,43.0,32.0,30.09,ESE,121,8.0,10.0,66,-99.99,,,-99.99,,2013-01-19 23:00:00,
2013-01-19 18:28:00,43.0,32.0,30.09,ESE,121,8.0,10.0,66,-99.99,,,-99.99,,2013-01-19 23:28:00,
2013-01-19 18:35:00,43.0,32.0,30.09,ESE,121,8.0,10.0,66,-99.99,,,-99.99,,2013-01-19 23:35:00,
2013-01-19 18:51:00,43.0,32.0,30.09,ESE,121,8.0,10.0,66,-99.99,,,-99.99,,2013-01-19 23:51:00,
2013-01-19 19:00:00,39.0,30.0,30.09,ESE,114,9.0,10.0,69,-99.99,,,-99.99,,2013-01-20 00:00:00,
2013-01-19 19:26:00,39.0,30.0,30.09,ESE,114,9.0,10.0,69,-99.99,,,-99.99,,2013-01-20 00:26:00,
2013-01-19 19:38:00,39.0,30.0,30.09,ESE,114,9.0,10.0,69,-99.99,,,-99.99,,2013-01-20 00:38:00,
2013-01-19 19:48:00,39.0,30.0,30.09,ESE,114,9.0,10.0,69,-99.99,,,-99.99,,2013-01-20 00:48:00,
2013-01-19 19:58:00,39.0,30.0,30.09,ESE,114,9.0,10.0,69,-99.99,,,-99.99,,2013-01-20 00:58:00,
2013-01-19 20:00:00,43.0,28.0,30.09,SE,130,0.0,9.0,54,-99.99,,,-99.99,,2013-01-20 01:00:00,
2013-01-19 20:28:00,43.0,28.0,30.09,SE,130,0.0,9.0,54,-99.99,,,-99.99,,2013-01-20 01:28:00,
2013-01-19 20:39:00,43.0,28.0,30.09,SE,130,0.0,9.0,54,-99.99,,,-99.99,,2013-01-20 01:39:00,
2013-01-19 21:00:00,44.0,29.0,30.06,SSE,161,5.0,10.0,55,-99.99,,,-99.99,,2013-01-20 02:00:00,
2013-01-19 21:27:00,44.0,29.0,30.06,SSE,161,5.0,10.0,55,-99.99,,,-99.99,,2013-01-20 02:27:00,
2013-01-19 21:45:00,44.0,29.0,30.06,SSE,161,5.0,10.0,55,-99.99,,,-99.99,,2013-01-20 02:45:00,
2013-01-19 21:59:00,44.0,29.0,30.06,SSE,161,5.0,10.0,55,-99.99,,,-99.99,,2013-01-20 02:59:00,
2013-01-19 22:00:00,44.0,29.0,30.03,SE,141,3.0,22.0,56,-99.99,,,-99.99,,2013-01-20 03:00:00,
2013-01-19 22:27:00,44.0,29.0,30.03,SE,141,3.0,22.0,56,-99.99,,,-99.99,,2013-01-20 03:27:00,
2013-01-19 22:39:00,44.0,29.0,30.03,SE,141,3.0,22.0,56,-99.99,,,-99.99,,2013-01-20 03:39:00,
2013-01-19 22:47:00,44.0,29.0,30.03,SE,141,3.0,22.0,56,-99.99,,,-99.99,,2013-01-20 03:47:00,
2013-01-19 22:58:00,44.0,29.0,30.03,SE,141,3.0,22.0,56,-99.99,,,-99.99,,2013-01-20 03:58:00,
2013-01-19 23:00:00,43.0,28.0,30.00,SSW,195,4.0,16.0,55,-99.99,,,-99.99,,2013-01-20 04:00:00,
2013-01-19 23:28:00,43.0,28.0,30.00,SSW,195,4.0,16.0,55,-99.99,,,-99.99,,2013-01-20 04:28:00,
2013-01-19 23:38:00,43.0,28.0,30.00,SSW,195,4.0,16.0,55,-99.99,,,-99.99,,2013-01-20 04:38:00,
2013-01-19 23:45:00,43.0,28.0,30.00,SSW,195,4.0,16.0,55,-99.99,,,-99.99,,2013-01-20 04:45:00,